Time;durP1;ratioP1;P1;durP2;ratioP2;P2;SDS_P1;SDS_P2;PMS_P1;PMS_P2;Temp;Humidity;BMP_temperature;BMP_pressure;BME280_temperature;BME280_humidity;BME280_pressure;Samples;Min_cycle;Max_cycle;Signal;HPM_P1;HPM_P2
2021/12/02 00:01:30;;;;;;;9.55;1.23;;;1.70;99.90;;;;;;4981052;28;20045;-75
2021/12/02 00:03:56;;;;;;;4.43;1.20;;;2.00;99.90;;;;;;4980103;28;20164;-75
2021/12/02 00:06:22;;;;;;;7.78;1.75;;;2.40;99.90;;;;;;4979874;28;20121;-75
2021/12/02 00:08:49;;;;;;;5.43;1.15;;;2.40;99.90;;;;;;4998089;28;20562;-76
2021/12/02 00:11:16;;;;;;;6.78;1.20;;;2.60;99.90;;;;;;4960439;28;20098;-77
2021/12/02 00:16:37;;;;;;;7.68;1.10;;;2.70;99.90;;;;;;4994428;28;20399;-76
2021/12/02 00:21:51;;;;;;;4.55;0.80;;;2.80;99.90;;;;;;4995662;28;20051;-75
2021/12/02 00:24:22;;;;;;;5.13;0.80;;;2.90;99.90;;;;;;4998496;28;20037;-75
2021/12/02 00:26:50;;;;;;;6.65;0.82;;;2.90;99.90;;;;;;4999470;28;20060;-75
2021/12/02 00:29:21;;;;;;;9.20;1.02;;;2.90;99.90;;;;;;4999056;28;20045;-76
2021/12/02 00:31:48;;;;;;;4.40;0.82;;;3.00;99.90;;;;;;4984408;28;20056;-75
2021/12/02 00:34:15;;;;;;;4.30;0.73;;;3.00;99.90;;;;;;4997604;28;20046;-75
2021/12/02 00:36:42;;;;;;;3.63;0.90;;;3.00;99.90;;;;;;4979509;28;20050;-75
2021/12/02 00:39:16;;;;;;;7.90;1.42;;;3.00;99.90;;;;;;4995698;28;20390;-75
2021/12/02 00:41:42;;;;;;;2.88;0.75;;;3.00;99.90;;;;;;4995813;28;20052;-75
2021/12/02 00:44:09;;;;;;;6.55;1.05;;;2.90;99.90;;;;;;4995760;28;20042;-76
2021/12/02 00:46:35;;;;;;;4.88;0.90;;;2.90;99.90;;;;;;5012159;28;20402;-75
2021/12/02 00:49:04;;;;;;;3.55;0.82;;;2.90;99.90;;;;;;4979910;28;20092;-75
2021/12/02 00:51:31;;;;;;;4.97;0.98;;;2.80;99.90;;;;;;4979070;28;20081;-75
2021/12/02 00:54:02;;;;;;;4.60;0.93;;;2.80;99.90;;;;;;4979746;28;20478;-75
2021/12/02 00:56:27;;;;;;;4.25;0.70;;;2.70;99.90;;;;;;4990512;28;20073;-75
2021/12/02 00:58:55;;;;;;;7.18;0.90;;;2.70;99.90;;;;;;4980388;28;20076;-75
2021/12/02 01:01:24;;;;;;;7.85;1.15;;;2.70;99.90;;;;;;5011424;28;20520;-75
2021/12/02 01:03:53;;;;;;;5.45;0.70;;;2.70;99.90;;;;;;5010973;28;20033;-75
2021/12/02 01:06:19;;;;;;;4.30;0.75;;;2.60;99.90;;;;;;4978832;28;20034;-74
2021/12/02 01:08:45;;;;;;;4.43;1.08;;;2.60;99.90;;;;;;4995304;28;20037;-74
2021/12/02 01:11:12;;;;;;;5.00;0.93;;;2.60;99.90;;;;;;5013635;28;20456;-73
2021/12/02 01:13:38;;;;;;;3.35;0.95;;;2.50;99.90;;;;;;4979010;28;20113;-75
2021/12/02 01:16:04;;;;;;;6.05;1.10;;;2.50;99.90;;;;;;4978812;28;20184;-75
2021/12/02 01:18:30;;;;;;;3.08;0.65;;;2.40;99.90;;;;;;4978666;28;20490;-76
2021/12/02 01:20:56;;;;;;;3.13;0.90;;;2.40;99.90;;;;;;5011808;28;20087;-73
2021/12/02 01:23:23;;;;;;;6.53;1.10;;;2.30;99.90;;;;;;4978979;28;20060;-75
2021/12/02 01:26:09;;;;;;;5.03;0.90;;;2.20;99.90;;;;;;4994705;28;20049;-74
2021/12/02 01:28:37;;;;;;;5.10;0.80;;;2.20;99.90;;;;;;4975583;28;20566;-73
2021/12/02 01:31:03;;;;;;;5.07;0.80;;;2.10;99.90;;;;;;4978488;28;20038;-73
2021/12/02 01:33:30;;;;;;;5.53;0.90;;;2.10;99.90;;;;;;4979084;28;20107;-73
2021/12/02 01:35:59;;;;;;;5.15;0.90;;;2.00;99.90;;;;;;4996905;28;20128;-73
2021/12/02 01:38:27;;;;;;;5.38;1.35;;;1.90;99.90;;;;;;4977700;28;20050;-74
2021/12/02 01:40:54;;;;;;;5.68;1.27;;;1.90;99.90;;;;;;4997204;28;20037;-73
2021/12/02 01:43:22;;;;;;;5.63;1.00;;;1.90;99.90;;;;;;5009294;28;20084;-73
2021/12/02 01:45:48;;;;;;;5.68;0.90;;;1.90;99.90;;;;;;4978611;28;20068;-74
2021/12/02 01:48:23;;;;;;;4.07;0.95;;;1.90;99.90;;;;;;5010840;28;20034;-75
2021/12/02 01:51:01;;;;;;;5.32;1.02;;;1.90;99.90;;;;;;4978009;28;20037;-76
2021/12/02 01:53:32;;;;;;;4.40;0.88;;;1.80;99.90;;;;;;4978123;28;20046;-75
2021/12/02 01:56:09;;;;;;;5.00;1.23;;;1.80;99.90;;;;;;4978355;28;20068;-75
2021/12/02 01:58:44;;;;;;;5.45;1.35;;;1.80;99.90;;;;;;5007380;28;20048;-75
2021/12/02 02:01:16;;;;;;;4.60;1.00;;;1.90;99.90;;;;;;4997269;28;20120;-75
2021/12/02 02:03:42;;;;;;;;;;;2.00;99.90;;;;;;4977869;28;20077;-75
2021/12/02 02:06:09;;;;;;;6.38;1.00;;;2.10;99.90;;;;;;4977882;28;19960;-75
2021/12/02 02:08:38;;;;;;;4.93;0.90;;;2.30;99.90;;;;;;4978560;28;20149;-74
2021/12/02 02:11:04;;;;;;;5.28;0.90;;;2.40;99.90;;;;;;4979941;28;20128;-74
2021/12/02 02:13:29;;;;;;;4.57;1.63;;;2.50;99.90;;;;;;4978399;28;20124;-74
2021/12/02 02:15:55;;;;;;;3.50;0.68;;;2.60;99.90;;;;;;5006825;28;20030;-74
2021/12/02 02:18:22;;;;;;;2.78;0.52;;;2.60;99.90;;;;;;5007008;28;20053;-74
2021/12/02 02:21:02;;;;;;;1.15;0.40;;;2.50;99.90;;;;;;5007100;28;20085;-74
2021/12/02 02:23:32;;;;;;;1.75;0.40;;;2.40;99.90;;;;;;5010439;28;20479;-75
2021/12/02 02:25:58;;;;;;;2.53;0.38;;;2.20;99.90;;;;;;5010797;28;20037;-76
2021/12/02 02:28:25;;;;;;;2.08;0.30;;;2.00;99.90;;;;;;5006505;28;20072;-75
2021/12/02 02:30:50;;;;;;;2.40;0.50;;;1.90;99.90;;;;;;5000673;28;20049;-75
2021/12/02 02:33:20;;;;;;;1.20;0.30;;;1.90;99.90;;;;;;4977804;28;20038;-75
2021/12/02 02:35:47;;;;;;;3.47;0.30;;;1.80;99.90;;;;;;4994498;28;20096;-75
2021/12/02 02:38:16;;;;;;;1.95;0.63;;;1.80;99.90;;;;;;4977905;28;20046;-76
2021/12/02 02:43:45;;;;;;;4.65;0.60;;;1.70;99.90;;;;;;5831065;23;20098;-75
2021/12/02 02:46:20;;;;;;;2.75;1.13;;;1.80;99.90;;;;;;5032944;28;20041;-75
2021/12/02 02:48:46;;;;;;;2.45;0.40;;;1.80;99.90;;;;;;5034992;28;20048;-76
2021/12/02 02:51:11;;;;;;;2.00;0.45;;;1.80;99.90;;;;;;5032131;28;20500;-76
2021/12/02 02:53:37;;;;;;;2.75;0.50;;;1.80;99.90;;;;;;5036402;28;20091;-76
2021/12/02 03:11:55;;;;;;;3.08;0.30;;;1.30;99.90;;;;;;5033224;28;20045;-74
2021/12/02 03:14:33;;;;;;;3.28;0.60;;;1.30;99.90;;;;;;5029529;28;20045;-75
2021/12/02 03:16:59;;;;;;;3.40;0.40;;;1.20;99.90;;;;;;4997005;28;20072;-75
2021/12/02 03:19:27;;;;;;;2.58;0.50;;;1.20;99.90;;;;;;5013213;28;20053;-75
2021/12/02 03:21:54;;;;;;;3.88;0.70;;;1.10;99.90;;;;;;5046173;28;20493;-76
2021/12/02 03:24:21;;;;;;;3.30;0.40;;;1.10;99.90;;;;;;5002644;28;20579;-75
2021/12/02 03:26:47;;;;;;;3.28;0.73;;;1.00;99.90;;;;;;5028440;28;20089;-75
2021/12/02 03:29:13;;;;;;;3.65;0.50;;;1.00;99.90;;;;;;5036313;28;20041;-75
2021/12/02 03:31:39;;;;;;;7.18;0.50;;;0.90;99.90;;;;;;5031686;28;20028;-73
2021/12/02 03:34:07;;;;;;;5.22;0.55;;;0.90;99.90;;;;;;5016232;28;20045;-73
2021/12/02 03:36:34;;;;;;;2.10;0.40;;;0.90;99.90;;;;;;5000323;28;20084;-73
2021/12/02 03:39:01;;;;;;;6.05;0.60;;;0.90;99.90;;;;;;5033455;28;20447;-74
2021/12/02 03:41:27;;;;;;;6.55;0.57;;;0.90;99.90;;;;;;5003417;28;20080;-73
2021/12/02 03:43:52;;;;;;;3.38;0.47;;;0.90;99.90;;;;;;5019357;28;20087;-73
2021/12/02 03:46:22;;;;;;;2.67;0.40;;;0.80;99.90;;;;;;5012836;28;20489;-73
2021/12/02 03:48:49;;;;;;;5.00;0.50;;;0.90;99.90;;;;;;5016392;28;20044;-73
2021/12/02 03:51:14;;;;;;;2.55;0.50;;;0.90;99.90;;;;;;5016529;28;20164;-73
2021/12/02 03:53:40;;;;;;;9.75;0.80;;;0.90;99.90;;;;;;5000109;28;20124;-74
2021/12/02 03:56:08;;;;;;;2.72;0.40;;;0.90;99.90;;;;;;5035966;28;20504;-75
2021/12/02 03:58:36;;;;;;;5.68;0.55;;;0.90;99.90;;;;;;5019739;28;20098;-73
2021/12/02 04:01:02;;;;;;;2.47;0.40;;;1.00;99.90;;;;;;5019054;28;20439;-73
2021/12/02 04:03:28;;;;;;;1.92;0.45;;;1.00;99.90;;;;;;5035933;28;20409;-72
2021/12/02 04:05:53;;;;;;;19.15;1.40;;;1.10;99.90;;;;;;5018866;28;20043;-74
2021/12/02 04:08:24;;;;;;;2.78;0.40;;;1.10;99.90;;;;;;5039063;28;20090;-73
2021/12/02 04:10:58;;;;;;;4.45;0.60;;;1.10;99.90;;;;;;5038350;28;20064;-73
2021/12/02 04:13:28;;;;;;;3.53;0.70;;;1.20;99.90;;;;;;4999873;28;20080;-74
2021/12/02 04:16:01;;;;;;;5.05;0.75;;;1.20;99.90;;;;;;5031252;28;20041;-73
2021/12/02 04:18:27;;;;;;;4.13;0.98;;;1.40;99.90;;;;;;5035926;28;20041;-74
2021/12/02 04:20:52;;;;;;;3.35;0.70;;;1.40;99.90;;;;;;5019143;28;20098;-73
2021/12/02 04:23:18;;;;;;;5.72;0.80;;;1.50;99.90;;;;;;5019055;28;20041;-73
2021/12/02 04:25:44;;;;;;;4.50;0.77;;;1.60;99.90;;;;;;5005581;28;20489;-73
2021/12/02 04:28:09;;;;;;;3.50;0.80;;;1.60;99.90;;;;;;5049053;28;20048;-74
2021/12/02 04:30:38;;;;;;;3.90;0.70;;;1.70;99.90;;;;;;5033290;28;20033;-76
2021/12/02 04:33:04;;;;;;;3.47;0.68;;;1.70;99.90;;;;;;5007264;28;20114;-76
2021/12/02 04:35:30;;;;;;;3.53;0.55;;;1.70;99.90;;;;;;5018825;28;20491;-76
2021/12/02 04:37:56;;;;;;;3.70;1.05;;;1.60;99.90;;;;;;5019173;28;20084;-76
2021/12/02 04:40:24;;;;;;;3.20;1.05;;;1.60;99.90;;;;;;5018727;28;20077;-76
2021/12/02 04:42:49;;;;;;;3.30;0.90;;;1.60;99.90;;;;;;5020433;28;20056;-76
2021/12/02 04:45:15;;;;;;;5.20;0.90;;;1.60;99.90;;;;;;5034761;28;20045;-76
2021/12/02 04:47:41;;;;;;;3.35;0.80;;;1.60;99.90;;;;;;5035511;28;20127;-75
2021/12/02 04:50:09;;;;;;;1.98;0.65;;;1.60;99.90;;;;;;5018367;28;20037;-76
2021/12/02 04:52:36;;;;;;;4.15;0.55;;;1.60;99.90;;;;;;5019379;28;20041;-73
2021/12/02 04:55:02;;;;;;;4.93;0.73;;;1.70;99.90;;;;;;5011858;28;20498;-75
2021/12/02 04:57:28;;;;;;;3.95;0.70;;;1.80;99.90;;;;;;5031563;28;20049;-74
2021/12/02 04:59:53;;;;;;;2.40;0.70;;;1.80;99.90;;;;;;4998831;28;20519;-73
2021/12/02 05:02:19;;;;;;;4.18;0.60;;;1.70;99.90;;;;;;5003099;28;20048;-73
2021/12/02 05:04:47;;;;;;;4.57;0.80;;;1.90;99.90;;;;;;5013934;28;20067;-73
2021/12/02 05:07:13;;;;;;;1.65;0.68;;;1.90;99.90;;;;;;4998698;28;20584;-73
2021/12/02 05:09:41;;;;;;;3.65;0.57;;;1.90;99.90;;;;;;5031158;28;20049;-73
2021/12/02 05:12:07;;;;;;;4.80;1.33;;;2.00;99.90;;;;;;5015068;28;20569;-74
2021/12/02 05:14:32;;;;;;;1.75;0.38;;;1.90;99.90;;;;;;5020674;28;20041;-76
2021/12/02 05:16:58;;;;;;;4.68;0.60;;;1.90;99.90;;;;;;5018033;28;20045;-76
2021/12/02 05:19:24;;;;;;;2.45;0.60;;;1.90;99.90;;;;;;5034733;28;20049;-76
2021/12/02 05:21:49;;;;;;;6.57;0.40;;;1.90;99.90;;;;;;5017854;28;20110;-76
2021/12/02 05:24:15;;;;;;;2.47;0.60;;;1.90;99.90;;;;;;5032711;28;20043;-75
2021/12/02 05:26:40;;;;;;;4.80;0.55;;;1.80;99.90;;;;;;5052599;28;20041;-75
2021/12/02 05:29:06;;;;;;;1.02;0.43;;;1.80;99.90;;;;;;5010126;28;20420;-76
2021/12/02 05:31:32;;;;;;;6.03;0.63;;;1.70;99.90;;;;;;5031176;28;20132;-76
2021/12/02 05:33:57;;;;;;;3.33;0.50;;;1.70;99.90;;;;;;5033493;28;20037;-76
2021/12/02 05:36:23;;;;;;;3.20;0.50;;;1.60;99.90;;;;;;5017740;28;20032;-74
2021/12/02 05:38:51;;;;;;;3.97;0.40;;;1.60;99.90;;;;;;5017682;28;20090;-74
2021/12/02 05:41:17;;;;;;;5.63;0.52;;;1.50;99.90;;;;;;5039793;28;20044;-74
2021/12/02 05:43:43;;;;;;;3.50;0.77;;;1.40;99.90;;;;;;5040152;28;20039;-74
2021/12/02 05:46:09;;;;;;;2.92;0.43;;;1.40;99.90;;;;;;5018037;28;20499;-74
2021/12/02 05:48:35;;;;;;;3.85;0.60;;;1.30;99.90;;;;;;5017712;28;20052;-74
2021/12/02 05:51:01;;;;;;;3.38;0.40;;;1.30;99.90;;;;;;5033870;28;20041;-74
2021/12/02 05:53:27;;;;;;;1.42;0.35;;;1.30;99.90;;;;;;5029564;28;20293;-74
2021/12/02 05:55:53;;;;;;;2.92;0.40;;;1.20;99.90;;;;;;5020116;28;20095;-75
2021/12/02 05:58:19;;;;;;;1.13;0.50;;;1.30;99.90;;;;;;5017917;28;20045;-74
2021/12/02 06:00:45;;;;;;;3.08;0.40;;;1.40;99.90;;;;;;5017657;28;20076;-74
2021/12/02 06:03:10;;;;;;;1.75;0.40;;;1.40;99.90;;;;;;5016752;28;20044;-74
2021/12/02 06:05:36;;;;;;;1.33;0.40;;;1.60;99.90;;;;;;5012263;28;20036;-74
2021/12/02 06:08:03;;;;;;;1.00;0.40;;;1.60;99.90;;;;;;5033668;28;20049;-74
2021/12/02 06:10:29;;;;;;;0.70;0.30;;;1.60;99.90;;;;;;5034562;28;20080;-73
2021/12/02 06:12:56;;;;;;;3.40;0.50;;;1.70;99.90;;;;;;5033372;28;20040;-74
2021/12/02 06:15:24;;;;;;;0.40;0.20;;;1.70;99.90;;;;;;5006142;28;20564;-75
2021/12/02 06:17:52;;;;;;;1.63;0.28;;;1.70;99.90;;;;;;4997781;28;20053;-74
2021/12/02 06:20:18;;;;;;;2.17;0.40;;;1.60;99.90;;;;;;5014095;28;20136;-73
2021/12/02 06:22:45;;;;;;;1.75;0.40;;;1.50;99.90;;;;;;5030370;28;20128;-73
2021/12/02 06:27:42;;;;;;;1.23;0.32;;;1.40;99.90;;;;;;5053976;28;20055;-73
2021/12/02 06:30:08;;;;;;;1.08;0.30;;;1.40;99.90;;;;;;5036874;28;20052;-73
2021/12/02 06:32:36;;;;;;;1.67;0.50;;;1.30;99.90;;;;;;5038255;28;20086;-74
2021/12/02 06:35:03;;;;;;;2.08;0.40;;;1.30;99.90;;;;;;5027879;28;20412;-75
2021/12/02 06:37:28;;;;;;;3.13;0.57;;;1.40;99.90;;;;;;5017195;28;20124;-73
2021/12/02 06:39:54;;;;;;;3.00;0.70;;;1.50;99.90;;;;;;5016864;28;20124;-73
2021/12/02 06:42:20;;;;;;;2.20;1.33;;;1.50;99.90;;;;;;5006840;28;20072;-73
2021/12/02 06:44:46;;;;;;;2.17;1.30;;;1.60;99.90;;;;;;5001759;28;20037;-73
2021/12/02 06:47:36;;;;;;;2.67;1.30;;;1.60;99.90;;;;;;5012509;28;20049;-76
2021/12/02 06:50:13;;;;;;;4.72;1.50;;;1.60;99.90;;;;;;5011269;28;20415;-77
2021/12/02 06:52:39;;;;;;;4.65;1.63;;;1.60;99.90;;;;;;5010023;28;20033;-75
2021/12/02 06:55:17;;;;;;;3.63;1.50;;;1.60;99.90;;;;;;5012092;28;20051;-78
2021/12/02 06:58:06;;;;;;;3.25;1.70;;;1.60;99.90;;;;;;5015096;28;20131;-80
2021/12/02 07:19:40;;;;;;;2.92;1.20;;;1.30;99.90;;;;;;4922685;29;20446;-82
2021/12/02 07:26:57;;;;;;;1.85;1.20;;;1.10;99.90;;;;;;4877630;29;20046;-81
2021/12/02 07:30:22;;;;;;;2.25;1.20;;;1.00;99.90;;;;;;4837343;29;20409;-83
2021/12/02 07:39:38;;;;;;;3.67;1.45;;;0.80;99.90;;;;;;4926619;29;20046;-81
2021/12/02 07:42:21;;;;;;;3.40;1.88;;;0.90;99.90;;;;;;4980006;28;20041;-77
2021/12/02 07:45:42;;;;;;;;;;;;;;;;;;;;;
2021/12/02 07:48:31;;;;;;;3.47;3.17;;;1.00;99.90;;;;;;5038790;28;20048;-78
2021/12/02 07:51:10;;;;;;;5.63;3.25;;;1.10;99.90;;;;;;5018674;28;20463;-79
2021/12/02 07:53:40;;;;;;;7.82;3.38;;;1.10;99.90;;;;;;5027679;28;20648;-76
2021/12/02 07:56:29;;;;;;;;;;;;;;;;;;;;;
2021/12/02 07:59:23;;;;;;;11.82;4.85;;;1.20;99.90;;;;;;5039405;28;19916;-80
2021/12/02 08:02:51;;;;;;;8.73;4.15;;;1.30;99.90;;;;;;5038959;28;20048;-78
2021/12/02 08:05:31;;;;;;;5.72;4.45;;;1.40;99.90;;;;;;5021829;28;20501;-79
2021/12/02 08:08:03;;;;;;;5.88;2.88;;;1.40;99.90;;;;;;5021304;28;20048;-74
2021/12/02 08:24:03;;;;;;;;;;;;;;;;;;;;;
2021/12/02 08:26:45;;;;;;;1.42;0.70;;;2.10;99.90;;;;;;5036604;28;20052;-77
2021/12/02 08:36:54;;;;;;;4.55;1.50;;;2.40;99.90;;;;;;5023111;28;20053;-79
2021/12/02 08:39:26;;;;;;;3.80;1.70;;;2.50;99.90;;;;;;4979134;28;20056;-74
2021/12/02 08:41:54;;;;;;;6.05;1.67;;;2.50;99.90;;;;;;5032868;28;20123;-77
2021/12/02 08:44:32;;;;;;;2.15;1.27;;;2.50;99.90;;;;;;5033927;28;20040;-77
2021/12/02 08:47:13;;;;;;;0.95;0.60;;;2.50;99.90;;;;;;5034531;28;20131;-77
2021/12/02 08:49:42;;;;;;;1.73;0.50;;;2.50;99.90;;;;;;5029030;28;20098;-74
2021/12/02 08:52:08;;;;;;;1.13;0.60;;;2.40;99.90;;;;;;5035167;28;20036;-75
2021/12/02 08:54:36;;;;;;;0.65;0.65;;;2.40;99.90;;;;;;5035968;28;20044;-74
2021/12/02 08:57:02;;;;;;;2.60;1.00;;;2.30;99.90;;;;;;5032628;23;20048;-78
2021/12/02 08:59:28;;;;;;;1.30;1.20;;;2.30;99.90;;;;;;5026757;28;20359;-77
2021/12/02 09:01:53;;;;;;;1.58;0.93;;;2.20;99.90;;;;;;5024877;28;20052;-79
2021/12/02 09:04:19;;;;;;;3.00;1.05;;;2.10;99.90;;;;;;5032475;28;20049;-78
2021/12/02 09:06:44;;;;;;;1.75;0.60;;;2.10;99.90;;;;;;5031301;28;20076;-79
2021/12/02 09:09:10;;;;;;;1.52;0.50;;;2.00;99.90;;;;;;5013750;28;20493;-79
2021/12/02 09:11:35;;;;;;;0.50;0.30;;;1.90;99.90;;;;;;5018968;28;20120;-79
2021/12/02 09:14:05;;;;;;;1.70;0.70;;;1.80;99.90;;;;;;5030920;28;20092;-79
2021/12/02 09:16:31;;;;;;;3.20;1.15;;;1.80;99.90;;;;;;5016223;28;20068;-79
2021/12/02 09:18:57;;;;;;;1.38;0.95;;;1.70;99.90;;;;;;5029243;28;20493;-78
2021/12/02 09:21:24;;;;;;;3.88;1.30;;;1.70;99.90;;;;;;5009862;28;20040;-79
2021/12/02 09:23:50;;;;;;;3.70;1.40;;;1.70;99.90;;;;;;5031968;28;20052;-79
2021/12/02 09:26:15;;;;;;;3.90;1.27;;;1.70;99.90;;;;;;5032224;28;20048;-79
2021/12/02 09:28:41;;;;;;;2.58;1.48;;;1.80;99.90;;;;;;5034530;28;20040;-79
2021/12/02 09:31:07;;;;;;;2.97;1.52;;;1.90;99.90;;;;;;5036409;28;20136;-79
2021/12/02 09:33:33;;;;;;;3.67;1.60;;;2.00;99.90;;;;;;5031016;28;20062;-79
2021/12/02 09:35:58;;;;;;;3.63;2.47;;;2.30;99.90;;;;;;5031480;28;20049;-79
2021/12/02 09:38:24;;;;;;;4.45;2.15;;;2.50;99.90;;;;;;5036498;28;20049;-79
2021/12/02 09:40:49;;;;;;;3.30;1.92;;;2.60;99.90;;;;;;5023570;28;20050;-79
2021/12/02 09:43:15;;;;;;;4.90;1.90;;;2.90;99.90;;;;;;5027331;28;20045;-79
2021/12/02 09:45:43;;;;;;;2.83;1.77;;;3.10;99.90;;;;;;5029464;28;20079;-78
2021/12/02 09:48:09;;;;;;;2.97;1.60;;;3.30;99.90;;;;;;5014663;28;20117;-78
2021/12/02 09:50:39;;;;;;;6.65;1.63;;;3.40;99.90;;;;;;5028777;28;20034;-78
2021/12/02 09:53:11;;;;;;;4.38;1.63;;;3.60;99.90;;;;;;5007086;28;20481;-79
2021/12/02 09:58:27;;;;;;;2.28;1.10;;;3.60;99.90;;;;;;5034580;28;20172;-85
2021/12/02 10:01:06;;;;;;;2.70;1.08;;;3.60;99.90;;;;;;5022038;28;20033;-81
2021/12/02 10:03:35;;;;;;;4.68;1.10;;;3.60;99.90;;;;;;5032812;28;20044;-82
2021/12/02 10:06:04;;;;;;;2.67;1.15;;;3.50;99.90;;;;;;5015861;28;20045;-81
2021/12/02 10:08:35;;;;;;;1.67;1.10;;;3.50;99.90;;;;;;5016101;28;20071;-82
2021/12/02 10:11:03;;;;;;;2.33;1.10;;;3.50;99.90;;;;;;5016016;28;20095;-81
2021/12/02 10:13:47;;;;;;;2.55;1.00;;;3.50;99.90;;;;;;5016055;28;20362;-82
2021/12/02 10:16:29;;;;;;;3.85;0.98;;;3.50;99.90;;;;;;5012782;28;20091;-81
2021/12/02 10:21:33;;;;;;;1.15;0.75;;;3.50;99.90;;;;;;5014980;28;20385;-81
2021/12/02 10:24:04;;;;;;;1.98;0.85;;;3.60;99.90;;;;;;5014432;28;20041;-82
2021/12/02 10:26:35;;;;;;;2.63;0.90;;;3.60;99.90;;;;;;5014453;28;20042;-82
2021/12/02 10:29:11;;;;;;;2.85;0.90;;;3.60;99.90;;;;;;5014797;28;20037;-82
2021/12/02 10:31:38;;;;;;;4.40;1.00;;;3.50;99.90;;;;;;5015504;28;20033;-82
2021/12/02 10:34:05;;;;;;;2.75;1.13;;;3.50;99.90;;;;;;4997808;28;20040;-82
2021/12/02 10:36:32;;;;;;;1.65;0.80;;;3.40;99.90;;;;;;5014468;28;20515;-82
2021/12/02 10:39:16;;;;;;;1.85;0.90;;;3.50;99.90;;;;;;5011683;28;20120;-82
2021/12/02 10:41:45;;;;;;;2.15;1.42;;;3.50;99.90;;;;;;5021527;28;20100;-81
2021/12/02 10:44:13;;;;;;;5.97;2.65;;;3.70;99.90;;;;;;5021786;28;20384;-82
2021/12/02 10:47:00;;;;;;;4.57;2.75;;;4.00;99.90;;;;;;5037071;28;20081;-82
2021/12/02 10:49:31;;;;;;;4.63;2.85;;;4.30;99.90;;;;;;5021672;28;20079;-81
2021/12/02 10:52:01;;;;;;;6.28;2.80;;;4.40;99.90;;;;;;5021412;28;20041;-82
2021/12/02 10:54:36;;;;;;;3.40;2.60;;;4.40;99.90;;;;;;5021005;28;20115;-82
2021/12/02 10:57:21;;;;;;;6.78;2.55;;;4.40;99.90;;;;;;5021272;28;20045;-82
2021/12/02 10:59:52;;;;;;;3.28;1.95;;;4.40;99.90;;;;;;5037721;28;20047;-82
2021/12/02 11:02:26;;;;;;;4.72;1.15;;;4.30;99.90;;;;;;5037920;28;20403;-82
2021/12/02 11:04:59;;;;;;;1.10;0.80;;;4.20;99.90;;;;;;5017334;28;20040;-82
2021/12/02 11:07:28;;;;;;;1.83;0.70;;;4.20;99.90;;;;;;5012173;28;20590;-82
2021/12/02 11:09:55;;;;;;;4.70;0.85;;;4.20;99.90;;;;;;5021107;28;20119;-82
2021/12/02 11:12:35;;;;;;;4.30;0.93;;;4.40;99.90;;;;;;5021126;28;20052;-82
2021/12/02 11:15:07;;;;;;;2.10;0.63;;;5.00;99.90;;;;;;5021419;28;20071;-82
2021/12/02 11:17:39;;;;;;;1.85;0.70;;;5.70;99.90;;;;;;5021120;28;20048;-83
2021/12/02 11:20:09;;;;;;;1.27;1.00;;;6.10;99.90;;;;;;5019169;28;20448;-82
2021/12/02 11:22:35;;;;;;;2.75;0.50;;;6.40;99.90;;;;;;5017501;28;20129;-83
2021/12/02 11:25:01;;;;;;;4.95;0.60;;;6.70;99.90;;;;;;5001206;28;20099;-81
2021/12/02 11:27:37;;;;;;;3.65;0.68;;;6.80;99.90;;;;;;5013443;28;20041;-82
2021/12/02 11:30:12;;;;;;;1.33;0.50;;;6.70;99.90;;;;;;5020861;28;20370;-81
2021/12/02 11:32:49;;;;;;;0.80;0.30;;;6.10;99.90;;;;;;5020017;28;20041;-80
2021/12/02 11:35:17;;;;;;;2.47;0.40;;;5.30;99.90;;;;;;5036563;28;20127;-82
2021/12/02 11:37:46;;;;;;;0.55;0.32;;;4.60;99.90;;;;;;5022145;28;20211;-82
2021/12/02 11:40:24;;;;;;;1.10;0.40;;;3.90;99.90;;;;;;5017568;28;20123;-83
2021/12/02 11:42:51;;;;;;;0.60;0.30;;;3.40;99.90;;;;;;5025525;28;20049;-79
2021/12/02 11:45:20;;;;;;;2.20;0.50;;;3.00;99.90;;;;;;5007480;28;20509;-79
2021/12/02 11:47:46;;;;;;;1.70;0.40;;;2.70;99.90;;;;;;5016665;28;20080;-81
2021/12/02 11:50:14;;;;;;;1.10;0.50;;;2.50;99.90;;;;;;5015944;28;20037;-79
2021/12/02 11:52:41;;;;;;;0.77;0.40;;;2.40;99.90;;;;;;5001629;28;20449;-81
2021/12/02 11:55:18;;;;;;;1.27;0.60;;;2.40;99.90;;;;;;5000560;28;20516;-82
2021/12/02 11:57:45;;;;;;;0.70;0.50;;;2.30;99.90;;;;;;5025904;28;20037;-81
2021/12/02 12:00:14;;;;;;;0.88;0.52;;;2.40;99.90;;;;;;5026487;28;20052;-82
2021/12/02 12:02:55;;;;;;;0.47;0.40;;;2.40;99.90;;;;;;5027310;28;20517;-82
2021/12/02 12:05:25;;;;;;;1.85;0.50;;;2.40;99.90;;;;;;5016599;28;20049;-81
2021/12/02 12:07:52;;;;;;;1.42;0.60;;;2.40;99.90;;;;;;5016567;28;20049;-82
2021/12/02 12:10:26;;;;;;;0.85;0.50;;;2.40;99.90;;;;;;5000241;28;20029;-80
2021/12/02 12:13:09;;;;;;;0.45;0.43;;;2.70;99.90;;;;;;5020006;28;20076;-81
2021/12/02 12:15:58;;;;;;;0.70;0.60;;;3.60;99.90;;;;;;5016248;28;20045;-79
2021/12/02 12:18:26;;;;;;;1.38;0.63;;;4.70;99.90;;;;;;5016252;28;20112;-79
2021/12/02 12:21:11;;;;;;;1.38;0.60;;;5.10;99.90;;;;;;5015879;28;20052;-79
2021/12/02 12:23:43;;;;;;;3.60;0.70;;;4.80;99.90;;;;;;4999704;28;20045;-79
2021/12/02 12:26:11;;;;;;;0.57;0.40;;;4.60;99.90;;;;;;5015697;28;20405;-77
2021/12/02 12:29:05;;;;;;;2.47;0.60;;;4.30;99.90;;;;;;4999534;28;20041;-78
2021/12/02 12:31:50;;;;;;;1.38;0.30;;;3.90;99.90;;;;;;5022320;28;20072;-77
2021/12/02 12:35:32;;;;;;;0.73;0.25;;;3.60;99.90;;;;;;5017941;28;20037;-76
2021/12/02 12:37:47;;;;;;;0.30;0.30;;;3.30;99.90;;;;;;5026456;28;20095;-79
2021/12/02 12:40:21;;;;;;;0.38;0.30;;;3.60;99.90;;;;;;5019172;28;20045;-79
2021/12/02 12:42:48;;;;;;;1.25;0.40;;;4.00;99.90;;;;;;4999964;28;20087;-77
2021/12/02 12:45:23;;;;;;;1.55;0.40;;;4.00;99.90;;;;;;5015611;28;20042;-77
2021/12/02 12:47:50;;;;;;;1.73;0.40;;;4.40;99.90;;;;;;5015353;28;20079;-77
2021/12/02 12:50:24;;;;;;;1.95;0.40;;;4.70;99.90;;;;;;5031237;28;20047;-78
2021/12/02 12:53:16;;;;;;;2.17;0.40;;;5.00;99.90;;;;;;5034934;28;20107;-78
2021/12/02 12:55:59;;;;;;;0.88;0.30;;;4.80;99.90;;;;;;4988852;28;20451;-78
2021/12/02 12:58:27;;;;;;;;;;;4.50;99.90;;;;;;4999706;28;20493;-78
2021/12/02 13:00:55;;;;;;;0.82;0.50;;;4.10;99.90;;;;;;4998768;28;20007;-78
2021/12/02 13:03:42;;;;;;;0.40;0.40;;;3.80;99.90;;;;;;5007116;28;20511;-78
2021/12/02 13:06:19;;;;;;;2.50;0.40;;;3.50;99.90;;;;;;5018308;28;20124;-78
2021/12/02 13:09:03;;;;;;;0.70;0.30;;;3.40;99.90;;;;;;5015933;28;20041;-78
2021/12/02 13:11:32;;;;;;;0.73;0.40;;;3.20;99.90;;;;;;5015136;28;20042;-77
2021/12/02 13:14:03;;;;;;;1.60;0.28;;;3.10;99.90;;;;;;4998573;28;20401;-77
2021/12/02 13:16:37;;;;;;;0.60;0.40;;;3.10;99.90;;;;;;5014896;28;20076;-78
2021/12/02 13:19:13;;;;;;;2.35;0.50;;;3.00;99.90;;;;;;5001374;28;20086;-77
2021/12/02 13:21:41;;;;;;;1.55;0.60;;;3.00;99.90;;;;;;4998743;28;20053;-77
2021/12/02 13:24:14;;;;;;;1.63;0.40;;;2.90;99.90;;;;;;5006407;28;20508;-78
2021/12/02 13:26:54;;;;;;;0.43;0.40;;;3.00;99.90;;;;;;5017907;28;20136;-78
2021/12/02 13:29:28;;;;;;;1.45;0.40;;;3.00;99.90;;;;;;5018039;28;20033;-78
2021/12/02 13:31:57;;;;;;;0.73;0.32;;;2.90;99.90;;;;;;5030800;28;20034;-78
2021/12/02 13:34:25;;;;;;;1.40;0.60;;;3.00;99.90;;;;;;5031272;28;20041;-77
2021/12/02 13:36:53;;;;;;;1.17;0.40;;;3.00;99.90;;;;;;5015182;28;20400;-78
2021/12/02 13:39:31;;;;;;;0.65;0.40;;;2.90;99.90;;;;;;5014838;28;20034;-77
2021/12/02 13:42:06;;;;;;;3.00;0.68;;;2.90;99.90;;;;;;5014468;28;20037;-77
2021/12/02 13:44:38;;;;;;;2.55;0.90;;;2.90;99.90;;;;;;4997679;28;20038;-77
2021/12/02 13:47:16;;;;;;;0.90;0.40;;;2.80;99.90;;;;;;5021910;28;20041;-78
2021/12/02 13:49:49;;;;;;;2.95;0.80;;;2.80;99.90;;;;;;5034310;28;20033;-78
2021/12/02 13:55:18;;;;;;;2.17;0.55;;;2.70;99.90;;;;;;5034265;28;20041;-78
2021/12/02 13:57:56;;;;;;;1.13;0.60;;;2.70;99.90;;;;;;5020487;28;20045;-78
2021/12/02 14:00:32;;;;;;;1.33;0.50;;;2.70;99.90;;;;;;4997736;28;20081;-77
2021/12/02 14:03:00;;;;;;;4.00;0.60;;;2.80;99.90;;;;;;5014158;28;20051;-78
2021/12/02 14:05:28;;;;;;;1.73;0.60;;;2.80;99.90;;;;;;5013873;28;20578;-78
2021/12/02 14:07:56;;;;;;;1.60;0.50;;;2.90;99.90;;;;;;4997868;28;20037;-77
2021/12/02 14:10:25;;;;;;;2.42;0.77;;;2.90;99.90;;;;;;5000026;28;20072;-77
2021/12/02 14:12:54;;;;;;;0.73;0.60;;;2.90;99.90;;;;;;5020732;28;20123;-78
2021/12/02 14:15:28;;;;;;;1.85;0.50;;;2.80;99.90;;;;;;5013897;28;20083;-78
2021/12/02 14:18:08;;;;;;;1.33;0.50;;;2.80;99.90;;;;;;5014247;28;20037;-77
2021/12/02 14:20:54;;;;;;;1.13;0.50;;;2.70;99.90;;;;;;5014001;28;20751;-77
2021/12/02 14:23:22;;;;;;;1.48;0.50;;;2.60;99.90;;;;;;5015126;28;20439;-77
2021/12/02 14:25:54;;;;;;;1.52;0.57;;;2.60;99.90;;;;;;4997407;28;20052;-77
2021/12/02 14:28:37;;;;;;;0.90;0.50;;;2.40;99.90;;;;;;5013813;28;20033;-77
2021/12/02 14:31:04;;;;;;;;;;;2.30;99.90;;;;;;4997903;28;20033;-78
2021/12/02 14:33:41;;;;;;;0.85;0.50;;;2.20;99.90;;;;;;5011523;28;19921;-77
2021/12/02 14:36:15;;;;;;;3.42;0.95;;;2.10;99.90;;;;;;5033441;28;20134;-78
2021/12/02 14:38:42;;;;;;;0.90;0.50;;;1.90;99.90;;;;;;5033578;28;20037;-78
2021/12/02 14:41:09;;;;;;;0.50;0.50;;;1.80;99.90;;;;;;5016847;28;20041;-78
2021/12/02 14:43:35;;;;;;;2.55;1.20;;;1.70;99.90;;;;;;5033226;28;20051;-78
2021/12/02 14:46:36;;;;;;;3.45;2.50;;;1.60;99.90;;;;;;5016491;28;20045;-78